Terminal Aerodrome Forecast
Issued by NWS Wilmington, NC

Home | Current Version | Previous Version | Text Only | Print | Product List | Glossary On
Versions: 1 2 3 4 5 6 7 8 9 10 11 12 13
000
FTUS42 KILM 172329
TAFFLO
TAF
KFLO 172329Z 1800/1824 VRB03KT 6SM HZ BKN080
     FM180400 VRB02KT P6SM BKN045
      TEMPO 1807/1811 4SM BR
     FM181100 23004KT P6SM OVC040
      TEMPO 1811/1813 5SM BR
     FM182000 24009KT P6SM OVC040=

USA.gov is the U.S. government's official web portal to all federal, state and local government web resources and services.